Flight Track Log - Related Links

Times and Time Zones

All times are in EST time to prevent confusion due to time zone crossing. See the UAL1116 flight status page for this flight to view local times or setup timezone preferences in your user account.

Time Position Orientation Groundspeed Altitude Reporting Facility
EST Latitude Longitude Course Direction KTS MPH feet Rate Location/Type
Sat 07:24:00 PM 34.0947 -116.6275 322° Northwest  Level Estimated
Sat 07:24:55 PM 32.0164 -116.0600 322° Northwest 404 465 38,000  Level Los Angeles Center
Sat 07:25:00 PM 34.1698 -116.7408 322° Northwest  Level Estimated
Sat 07:25:56 PM 32.0817 -116.1689 305° West 406 467 38,000  Level Los Angeles Center
Sat 07:26:00 PM 34.2449 -116.8542 322° Northwest  Level Estimated
Sat 07:26:58 PM 32.1581 -116.2997 305° West 404 465 38,000  Level Los Angeles Center
Sat 07:27:00 PM 34.3199 -116.9678 322° Northwest  Level Estimated
Sat 07:28:00 PM 34.3947 -117.0816 322° Northwest  Level Estimated
Sat 07:28:00 PM 32.2097 -116.3875 305° West 405 466 38,000  Level Los Angeles Center
Sat 07:29:00 PM 34.4695 -117.1957 322° Northwest  Level Estimated
Sat 07:29:02 PM 32.2858 -116.5178 305° West 402 463 37,900  Level Los Angeles Center
Sat 07:30:00 PM 34.5442 -117.3099 322° Northwest  Level Estimated
Sat 07:30:04 PM 32.3492 -116.6258 305° West 399 459 38,000  Level Los Angeles Center
Sat 07:31:06 PM 32.4139 -116.7358 305° West 404 465 38,000 -48 Level Los Angeles Center
Sat 07:32:08 PM 32.4775 -116.8456 305° West 404 465 37,900  Descending Los Angeles Center
Sat 07:33:10 PM 32.5431 -116.9583 305° West 409 471 38,000 48 Climbing Los Angeles Center
Sat 07:34:12 PM 32.6331 -117.0806 311° West 408 470 38,000 -48 Level Los Angeles Center
Sat 07:35:14 PM 32.7083 -117.1847 311° West 412 474 37,900  Descending Los Angeles Center
Sat 07:36:16 PM 32.7814 -117.2886 310° West 410 472 38,000 48 Climbing Los Angeles Center
Sat 07:37:18 PM 32.8558 -117.3908 311° West 412 474 38,000  Level Los Angeles Center
Sat 07:38:20 PM 32.9292 -117.4947 310° West 411 473 38,000  Level Los Angeles Center
Sat 07:39:34 PM 33.0042 -117.5975 311° West 411 473 38,000  Level Los Angeles Center
Sat 07:40:36 PM 33.1083 -117.7439 310° West 414 476 38,000  Level Los Angeles Center
Sat 07:41:38 PM 33.1831 -117.8483 311° West 413 475 38,000  Level Los Angeles Center
Sat 07:42:41 PM 33.2572 -117.9533 310° West 413 475 38,000  Level Los Angeles Center
Sat 07:43:43 PM 33.3317 -118.0594 310° West 416 479 38,000  Level Los Angeles Center
Sat 07:44:45 PM 33.4061 -118.1661 310° West 415 478 38,000  Level Los Angeles Center
Sat 07:45:47 PM 33.4811 -118.2731 310° West 417 480 38,000  Level Los Angeles Center
Sat 07:46:49 PM 33.5553 -118.3814 309° West 416 479 38,000  Level Los Angeles Center
Sat 07:48:03 PM 33.6325 -118.4914 310° West 421 484 38,000  Level Los Angeles Center
Sat 07:49:05 PM 33.7397 -118.6456 310° West 423 487 38,000  Level Los Angeles Center
Sat 07:50:07 PM 33.8156 -118.7544 310° West 424 488 38,000  Level Los Angeles Center
Sat 07:51:09 PM 33.8906 -118.8633 310° West 422 486 38,000  Level Los Angeles Center
Sat 07:52:11 PM 33.9650 -118.9717 310° West 420 483 38,000  Level Los Angeles Center
Sat 07:53:13 PM 34.0394 -119.0811 309° West 421 484 38,000  Level Los Angeles Center
Sat 07:54:15 PM 34.1133 -119.1900 309° West 420 483 38,000  Level Los Angeles Center
Sat 07:55:17 PM 34.2025 -119.3217 309° West 422 486 38,000  Level Los Angeles Center
Sat 07:56:19 PM 34.2789 -119.4322 310° West 426 490 38,000  Level Los Angeles Center
Sat 07:57:21 PM 34.3522 -119.5431 309° West 424 488 38,000  Level Los Angeles Center
Sat 07:58:24 PM 34.4272 -119.6542 309° West 426 490 38,000  Level Los Angeles Center
Sat 07:59:26 PM 34.5031 -119.7647 310° West 427 491 38,000  Level Los Angeles Center
Sat 08:00:28 PM 34.5892 -119.8625 317° Northwest 424 488 38,000  Level Los Angeles Center
Sat 08:01:30 PM 34.6958 -119.9725 320° Northwest 422 486 38,000  Level Los Angeles Center
Sat 08:02:32 PM 34.7822 -120.0686 318° Northwest 421 484 38,000  Level Los Angeles Center
Sat 08:03:36 PM 34.8717 -120.1658 318° Northwest 426 490 38,000 -48 Level Los Angeles Center
Sat 08:04:36 PM 34.9556 -120.2592 318° Northwest 424 488 37,900  Descending Los Angeles Center
Sat 08:05:38 PM 35.0411 -120.3528 318° Northwest 419 482 38,000 48 Climbing Los Angeles Center
Sat 08:06:40 PM 35.1267 -120.4475 318° Northwest 420 483 38,000  Level Los Angeles Center
Sat 08:07:42 PM 35.2283 -120.5622 317° Northwest 420 483 38,000 -48 Level Los Angeles Center
Sat 08:08:44 PM 35.3147 -120.6597 317° Northwest 425 489 37,900 -48 Descending Los Angeles Center
Sat 08:09:46 PM 35.4011 -120.7564 318° Northwest 424 488 37,900 48 Level Los Angeles Center
Sat 08:10:48 PM 35.4881 -120.8531 318° Northwest 423 487 38,000 44 Climbing Los Angeles Center
Sat 08:12:02 PM 35.5819 -120.9392 323° Northwest 423 487 38,000  Level Los Angeles Center
Sat 08:13:04 PM 35.7086 -121.0478 325° Northwest 419 482 38,000 -361 Level Los Angeles Center
Sat 08:14:15 PM 35.8211 -121.1481 324° Northwest 414 476 37,200 -773 Descending Oakland Center
Sat 08:15:16 PM 35.9181 -121.2306 325° Northwest 421 484 36,300 -1,033 Descending Oakland Center
Sat 08:16:17 PM 36.0153 -121.3175 324° Northwest 429 494 35,100 -1,967 Descending Oakland Center
Sat 08:17:18 PM 36.1128 -121.4008 325° Northwest 426 490 32,300 -2,557 Descending Oakland Center
Sat 08:18:19 PM 36.2103 -121.4875 324° Northwest 429 494 29,900 -2,311 Descending Oakland Center
Sat 08:19:20 PM 36.3053 -121.5714 325° Northwest 421 484 27,600 -2,164 Descending Oakland Center
Sat 08:20:21 PM 36.3983 -121.6531 325° Northwest 409 471 25,500 -2,278 Descending Oakland Center
Sat 08:21:08 PM 36.4833 -121.7333 323° Northwest 398 458 23,500 -2,177 Descending Northern Cal TRACON
Sat 08:22:14 PM 36.5833 -121.8167 326° Northwest 381 438 21,400 -2,095 Descending Northern Cal TRACON
Sat 08:23:14 PM 36.6667 -121.8667 334° Northwest 375 432 19,100 -2,100 Descending Northern Cal TRACON
Sat 08:24:14 PM 36.7667 -121.9167 338° Northwest 360 414 17,200 -1,900 Descending Northern Cal TRACON
Sat 08:25:14 PM 36.8500 -121.9500 342° North 348 400 15,300 -1,900 Descending Northern Cal TRACON
Sat 08:26:14 PM 36.9500 -122.0000 338° Northwest 338 389 13,400 -1,850 Descending Northern Cal TRACON
Sat 08:27:14 PM 37.0333 -122.0333 342° North 326 375 11,600 -1,500 Descending Northern Cal TRACON
Sat 08:28:14 PM 37.1167 -122.0667 342° North 304 350 10,400 -800 Descending Northern Cal TRACON
Sat 08:29:14 PM 37.1833 -122.0833 349° North 274 315 10,000 -950 Descending Northern Cal TRACON
Sat 08:30:14 PM 37.2667 -122.1000 351° North 263 303 8,500 -1,550 Descending Northern Cal TRACON
Sat 08:31:14 PM 37.3333 -122.1167 349° North 262 302 6,900 -1,400 Descending Northern Cal TRACON
Sat 08:32:14 PM 37.4000 -122.1333 349° North 260 299 5,700 -750 Descending Northern Cal TRACON
Sat 08:33:14 PM 37.4667 -122.1500 349° North 215 247 5,400 -744 Descending Northern Cal TRACON
Sat 08:34:15 PM 37.5167 -122.1833 332° Northwest 191 220 4,200 -1,339 Descending Northern Cal TRACON
Sat 08:35:15 PM 37.5500 -122.2167 322° Northwest 185 213 2,700 -1,344 Descending Northern Cal TRACON
Sat 08:36:20 PM 37.5833 -122.2833 302° West 171 197 1,400 -1,050 Descending Northern Cal TRACON
Sat 08:37:15 PM 37.6000 -122.3167 302° West 166 191 600 -873 Descending Northern Cal TRACON

Login

Don't have an account? Register now (free) for customized features, flight alerts, and more!